Details From ENAL - Alesund lufthavn - Vigra
To ENBR - Bergen Lufthavn Flesland
Flight Number -
Tags generated
Created
Modified
Stats Distance 139 nm / 257 km
Max Altitude 18,500 ft / 5,639 m
Waypoints 4
Social Downloads 9
Likes 0
Share VATSIM

Download

Looking for another format? Having issues loading an existing format? Contact us
Advertisement - Login to hide

Notes

Basic altitude profile: - Ascent Rate: 2000ft/min - Ascent Speed: 250kts - Cruise Altitude: 1000ft - Cruise Speed: 320kts - Descent Rate: 1500ft/min - Descent Speed: 250kts Options: - Use NATs: yes - Use PACOTS: yes - Use low airways: yes - Use high airways: yes

Route

ENAL AMKAR TB1 FLE ENBR

ID Type Via Altitude Latitude Longitude Leg Dist Tot Dist Heading (true) Name
O ENAL APT - 0 ft / 0 m 62.56037˚ 6.11016˚ - 0 nm - Alesund lufthavn - Vigra
AMKAR FIX - 12,300 ft / 3,749 m 62.00000˚ 5.82556˚ 34 nm 34 nm 193° / 193° -
FLE VOR TB1 (AWY-LO) 18,500 ft / 5,639 m 60.30004˚ 5.21359˚ 103 nm 138 nm 190° / 190° -
O ENBR APT - 0 ft / 0 m 60.29339˚ 5.21814˚ 0 nm 138 nm 161° / 161° Bergen Lufthavn Flesland

Altitude Profile

Advertisement - Login to hide

ENAL

Details ICAO ENAL (AES)
Name Alesund lufthavn - Vigra
Region Norway
Timezone Europe/Oslo (UTC+1.0)
Stats Elevation 69 ft / 21 m (AMSL)
Location 62.560371° 6.110165°
Runways 1
Magnetic Variation 1.160° E

METAR

ENAL 111250Z 14009KT 9999 FEW008 BKN032 01/00 Q0992

Decode

TAF

Not found

Departure Runways

ID Width Length Bearing (true) Bearing (mag) Surface Threshold Offset Overrun Length
07 148 ft / 45 m 7,563 ft / 2,305 m 64.61° 63.45° Asphalt 492 ft / 150 m 0 ft / 0 m
25 148 ft / 45 m 7,563 ft / 2,305 m 244.65° 243.49° Asphalt 758 ft / 231 m 0 ft / 0 m

ENBR

Details ICAO ENBR (BGO)
Name Bergen Lufthavn Flesland
Region Norway
Timezone Europe/Oslo (UTC+1.0)
Stats Elevation 165 ft / 50 m (AMSL)
Location 60.293388° 5.218140°
Runways 1
Magnetic Variation 0.839° E

METAR

ENBR 111250Z 13006KT 9999 FEW020CB FEW090 01/M07 Q0993 NOSIG RMK WIND 1200FT 14015KT

Decode

TAF

TAF ENBR 111100Z 1112/1212 14010KT 9999 FEW015 BKN050 TEMPO 1206/1212 VRB08KT 1500 SHSN VV008

Decode

Destination Runways

ID Width Length Bearing (true) Bearing (mag) Surface Threshold Offset Overrun Length
17 148 ft / 45 m 9,793 ft / 2,985 m 170.56° 169.72° Asphalt 886 ft / 270 m 0 ft / 0 m
35 148 ft / 45 m 9,793 ft / 2,985 m 350.57° 349.73° Asphalt 886 ft / 270 m 0 ft / 0 m

Approach Navaids

Runway Type Ident Frequency Range Bearing (true) Bearing (mag) Slope Elevation
17 Localiser BR 109.90 MHz 18 nm / 33 km 170.56° 169.72° - 165 ft / 50 m (AMSL)
17 Glidescope BR 109.90 MHz 10 nm / 19 km 170.56° 169.72° 3.10° 165 ft / 50 m (AMSL)
35 Localiser BG 110.50 MHz 18 nm / 33 km 350.55° 349.71° - 165 ft / 50 m (AMSL)
35 Glidescope BG 110.50 MHz 10 nm / 19 km 350.56° 349.72° 3.00° 165 ft / 50 m (AMSL)

Popular Alternatives